createdAt,value
2019-05-16T00:00:58.745Z,11.48
2019-05-16T00:04:02.982Z,11.47
2019-05-16T00:07:08.060Z,11.45
2019-05-16T00:10:12.537Z,11.41
2019-05-16T00:13:18.617Z,11.37
2019-05-16T00:16:22.645Z,11.38
2019-05-16T00:19:28.789Z,11.40
2019-05-16T00:22:33.353Z,11.35
2019-05-16T00:25:38.619Z,11.32
2019-05-16T00:28:42.872Z,11.29
2019-05-16T00:31:48.652Z,11.32
2019-05-16T00:34:53.526Z,11.29
2019-05-16T00:37:59.012Z,11.27
2019-05-16T00:41:03.655Z,11.28
2019-05-16T00:44:08.552Z,11.31
2019-05-16T00:47:13.225Z,11.28
2019-05-16T00:50:18.349Z,11.24
2019-05-16T00:53:22.677Z,11.19
2019-05-16T00:56:28.931Z,11.14
2019-05-16T00:59:34.148Z,11.13
2019-05-16T01:02:38.411Z,11.09
2019-05-16T01:05:42.637Z,11.06
2019-05-16T01:08:48.758Z,11.05
2019-05-16T01:11:52.583Z,11.04
2019-05-16T01:14:58.418Z,11.04
2019-05-16T01:18:03.130Z,11.02
2019-05-16T01:21:07.844Z,11.03
2019-05-16T01:24:11.901Z,11.00
2019-05-16T01:27:18.368Z,10.97
2019-05-16T01:30:21.984Z,10.96
2019-05-16T01:33:28.061Z,10.96
2019-05-16T01:36:36.701Z,10.93
2019-05-16T01:39:38.293Z,10.93
2019-05-16T01:42:42.497Z,10.95
2019-05-16T01:45:48.660Z,10.96
2019-05-16T01:48:52.500Z,10.96
2019-05-16T01:51:57.907Z,10.94
2019-05-16T01:55:02.263Z,10.95
2019-05-16T01:58:08.043Z,10.94
2019-05-16T02:01:15.070Z,10.91
2019-05-16T02:04:18.449Z,10.91
2019-05-16T02:07:22.414Z,10.87
2019-05-16T02:10:28.336Z,10.87
2019-05-16T02:13:32.348Z,10.88
2019-05-16T02:16:38.439Z,10.89
2019-05-16T02:19:43.011Z,10.90
2019-05-16T02:22:48.230Z,10.85
2019-05-16T02:25:52.292Z,10.82
2019-05-16T02:28:56.291Z,10.80
2019-05-16T02:32:02.057Z,10.80
2019-05-16T02:35:06.481Z,10.73
2019-05-16T02:38:11.389Z,10.65
2019-05-16T02:41:16.491Z,10.60
2019-05-16T02:44:24.403Z,10.59
2019-05-16T02:47:26.061Z,10.60
2019-05-16T02:50:31.801Z,10.61
2019-05-16T02:53:36.216Z,10.64
2019-05-16T02:56:41.738Z,10.69
2019-05-16T02:59:46.705Z,10.71
2019-05-16T03:02:51.377Z,10.70
2019-05-16T03:05:57.233Z,10.67
2019-05-16T03:09:05.280Z,10.66
2019-05-16T03:12:10.814Z,10.63
2019-05-16T03:15:15.340Z,10.61
2019-05-16T03:18:22.614Z,10.56
2019-05-16T03:21:30.885Z,10.54
2019-05-16T03:24:34.877Z,10.49
2019-05-16T03:27:41.423Z,10.43
2019-05-16T03:30:45.498Z,10.36
2019-05-16T03:33:58.930Z,10.31
2019-05-16T03:36:55.901Z,10.28
2019-05-16T03:40:00.777Z,10.24
2019-05-16T03:43:04.964Z,10.25
2019-05-16T03:46:11.739Z,10.24
2019-05-16T03:49:14.977Z,10.24
2019-05-16T03:52:20.704Z,10.24
2019-05-16T03:55:24.927Z,10.26
2019-05-16T03:58:31.039Z,10.26
2019-05-16T04:01:34.851Z,10.24
2019-05-16T04:04:41.477Z,10.28
2019-05-16T04:07:44.683Z,10.27
2019-05-16T04:10:51.696Z,10.25
2019-05-16T04:13:54.966Z,10.27
2019-05-16T04:17:01.359Z,10.28
2019-05-16T04:20:06.811Z,10.30
2019-05-16T04:23:11.353Z,10.37
2019-05-16T04:26:15.953Z,10.40
2019-05-16T04:29:20.742Z,10.41
2019-05-16T04:32:24.963Z,10.46
2019-05-16T04:35:31.627Z,10.48
2019-05-16T04:38:41.271Z,10.51
2019-05-16T04:41:41.046Z,10.61
2019-05-16T04:44:45.083Z,10.68
2019-05-16T04:47:51.117Z,10.83
2019-05-16T04:50:54.950Z,11.00
2019-05-16T04:54:02.008Z,11.16
2019-05-16T04:57:04.982Z,11.31
2019-05-16T05:00:11.314Z,11.45
2019-05-16T05:03:15.596Z,11.57
2019-05-16T05:06:20.817Z,11.70
2019-05-16T05:09:25.460Z,11.84
2019-05-16T05:12:31.488Z,11.83
2019-05-16T05:15:36.413Z,11.89
2019-05-16T05:18:41.010Z,11.89
2019-05-16T05:21:45.628Z,11.88
2019-05-16T05:24:50.756Z,11.90
2019-05-16T05:27:54.779Z,11.89
2019-05-16T05:31:00.069Z,11.98
2019-05-16T05:34:04.060Z,12.14
2019-05-16T05:37:12.246Z,12.28
2019-05-16T05:40:16.331Z,12.29
2019-05-16T05:43:21.515Z,12.19
2019-05-16T05:46:26.297Z,12.36
2019-05-16T05:49:30.520Z,12.47
2019-05-16T05:52:34.649Z,12.47
2019-05-16T05:55:40.506Z,12.60
2019-05-16T05:58:44.468Z,12.72
2019-05-16T06:01:51.572Z,12.52
2019-05-16T06:04:54.558Z,12.59
2019-05-16T06:08:00.302Z,12.78
2019-05-16T06:11:05.329Z,12.99
2019-05-16T06:14:09.812Z,13.16
2019-05-16T06:17:14.271Z,13.40
2019-05-16T06:20:20.343Z,13.35
2019-05-16T06:23:25.066Z,13.52
2019-05-16T06:26:30.308Z,13.68
2019-05-16T06:29:34.671Z,13.86
2019-05-16T06:32:39.545Z,14.18
2019-05-16T06:35:43.968Z,14.52
2019-05-16T06:38:49.760Z,15.30
2019-05-16T06:41:54.196Z,16.33
2019-05-16T06:45:00.892Z,17.97
2019-05-16T06:48:05.401Z,19.25
2019-05-16T06:51:10.720Z,20.51
2019-05-16T06:54:15.090Z,21.73
2019-05-16T06:57:20.629Z,22.33
2019-05-16T07:00:24.739Z,21.07
2019-05-16T07:03:30.671Z,19.13
2019-05-16T07:06:51.641Z,17.68
2019-05-16T07:09:56.100Z,17.49
2019-05-16T07:12:50.171Z,18.10
2019-05-16T07:15:53.689Z,17.47
2019-05-16T07:18:58.059Z,17.05
2019-05-16T07:22:02.007Z,16.52
2019-05-16T07:25:06.821Z,16.08
2019-05-16T07:28:10.744Z,16.27
2019-05-16T07:31:18.749Z,16.33
2019-05-16T07:34:20.972Z,16.05
2019-05-16T07:37:25.160Z,15.94
2019-05-16T07:40:30.826Z,15.86
2019-05-16T07:43:34.772Z,15.82
2019-05-16T07:46:40.904Z,15.99
2019-05-16T07:49:45.134Z,15.64
2019-05-16T07:52:51.063Z,15.48
2019-05-16T07:55:56.106Z,15.52
2019-05-16T07:59:00.921Z,15.75
2019-05-16T08:02:05.034Z,16.33
2019-05-16T08:05:10.228Z,16.31
2019-05-16T08:08:14.892Z,16.25
2019-05-16T08:11:23.189Z,16.49
2019-05-16T08:14:25.037Z,16.94
2019-05-16T08:17:31.435Z,17.29
2019-05-16T08:20:35.564Z,17.45
2019-05-16T08:23:41.181Z,17.11
2019-05-16T08:26:45.744Z,17.05
2019-05-16T08:29:51.377Z,17.26
2019-05-16T08:32:55.967Z,17.34
2019-05-16T08:36:04.730Z,17.35
2019-05-16T08:39:10.867Z,17.20
2019-05-16T08:42:13.636Z,17.26
2019-05-16T08:45:21.212Z,17.14
2019-05-16T08:48:24.647Z,17.19
2019-05-16T08:51:32.821Z,17.05
2019-05-16T08:54:34.807Z,16.87
2019-05-16T08:57:41.003Z,16.64
2019-05-16T09:00:44.875Z,16.38
2019-05-16T09:03:51.684Z,16.35
2019-05-16T09:06:54.773Z,16.29
2019-05-16T09:10:00.208Z,16.41
2019-05-16T09:13:07.138Z,16.45
2019-05-16T09:16:10.839Z,16.74
2019-05-16T09:19:16.942Z,16.91
2019-05-16T09:22:20.732Z,17.13
2019-05-16T09:25:27.453Z,17.18
2019-05-16T09:28:30.960Z,17.12
2019-05-16T09:31:38.262Z,17.12
2019-05-16T09:34:40.980Z,17.21
2019-05-16T09:37:47.315Z,17.30
2019-05-16T09:40:51.696Z,17.46
2019-05-16T09:43:58.629Z,17.59
2019-05-16T09:47:01.347Z,17.77
2019-05-16T09:50:07.175Z,17.79
2019-05-16T09:53:11.438Z,18.14
2019-05-16T09:56:16.808Z,18.68
2019-05-16T09:59:21.207Z,19.04
2019-05-16T10:02:27.454Z,19.59
2019-05-16T10:05:31.185Z,19.95
2019-05-16T10:08:37.453Z,19.98
2019-05-16T10:11:42.761Z,19.92
2019-05-16T10:14:47.096Z,20.13
2019-05-16T10:17:51.369Z,19.92
2019-05-16T10:20:58.994Z,19.75
2019-05-16T10:24:01.688Z,19.55
2019-05-16T10:27:06.675Z,19.39
2019-05-16T10:30:12.341Z,19.14
2019-05-16T10:33:18.846Z,18.82
2019-05-16T10:36:22.321Z,18.41
2019-05-16T10:39:26.906Z,17.95
2019-05-16T10:42:31.444Z,18.06
2019-05-16T10:45:36.872Z,18.47
2019-05-16T10:48:40.961Z,18.94
2019-05-16T10:51:46.994Z,19.55
2019-05-16T10:54:57.550Z,19.27
2019-05-16T10:57:56.890Z,19.22
2019-05-16T11:01:22.269Z,19.08
2019-05-16T11:04:07.945Z,19.11
2019-05-16T11:07:12.097Z,19.14
2019-05-16T11:10:16.887Z,18.95
2019-05-16T11:13:20.886Z,19.06
2019-05-16T11:16:27.491Z,19.03
2019-05-16T11:19:31.043Z,19.28
2019-05-16T11:22:36.990Z,19.20
2019-05-16T11:25:41.268Z,19.28
2019-05-16T11:28:48.548Z,19.62
2019-05-16T11:31:51.598Z,19.70
2019-05-16T11:34:56.284Z,19.63
2019-05-16T11:38:00.774Z,19.98
2019-05-16T11:41:07.304Z,20.40
2019-05-16T11:44:10.726Z,20.40
2019-05-16T11:47:16.576Z,20.10
2019-05-16T11:50:21.141Z,20.10
2019-05-16T11:53:28.119Z,19.60
2019-05-16T11:56:30.692Z,19.60
2019-05-16T11:59:37.166Z,19.85
2019-05-16T12:02:42.805Z,19.99
2019-05-16T12:05:48.313Z,20.08
2019-05-16T12:08:52.781Z,19.99
2019-05-16T12:12:04.236Z,19.57
2019-05-16T12:15:02.899Z,19.76
2019-05-16T12:18:08.489Z,19.80
2019-05-16T12:21:12.980Z,19.72
2019-05-16T12:24:31.647Z,20.15
2019-05-16T12:27:23.114Z,20.15
2019-05-16T12:30:27.376Z,20.01
2019-05-16T12:33:31.668Z,20.06
2019-05-16T12:36:37.852Z,19.96
2019-05-16T12:39:41.767Z,19.96
2019-05-16T12:42:47.176Z,19.67
2019-05-16T12:45:51.300Z,19.85
2019-05-16T12:48:57.492Z,20.33
2019-05-16T12:52:00.866Z,20.52
2019-05-16T12:55:05.177Z,21.51
2019-05-16T12:58:13.288Z,21.70
2019-05-16T13:01:17.627Z,21.53
2019-05-16T13:04:20.743Z,21.36
2019-05-16T13:07:26.929Z,21.35
2019-05-16T13:10:30.724Z,20.92
2019-05-16T13:13:37.264Z,20.66
2019-05-16T13:16:40.785Z,20.69
2019-05-16T13:19:48.122Z,20.18
2019-05-16T13:22:50.871Z,19.65
2019-05-16T13:25:57.487Z,19.25
2019-05-16T13:29:00.987Z,19.35
2019-05-16T13:32:07.555Z,18.61
2019-05-16T13:35:10.900Z,18.61
2019-05-16T13:38:17.381Z,18.67
2019-05-16T13:41:20.748Z,18.77
2019-05-16T13:44:27.294Z,18.68
2019-05-16T13:47:30.859Z,18.68
2019-05-16T13:50:37.352Z,18.38
2019-05-16T13:53:41.258Z,18.35
2019-05-16T13:56:48.387Z,18.04
2019-05-16T13:59:52.309Z,18.04
2019-05-16T14:02:56.795Z,17.89
2019-05-16T14:06:01.416Z,17.92
2019-05-16T14:12:11.604Z,17.86
2019-05-16T14:15:18.127Z,17.77
2019-05-16T14:18:22.707Z,17.69
2019-05-16T14:21:27.340Z,17.47
2019-05-16T14:24:31.655Z,17.26
2019-05-16T14:27:38.324Z,17.04
2019-05-16T14:30:41.720Z,16.96
2019-05-16T14:33:47.438Z,17.03
2019-05-16T14:36:52.119Z,17.06
2019-05-16T14:40:00.378Z,16.91
2019-05-16T14:43:01.576Z,16.84
2019-05-16T14:46:09.283Z,16.66
2019-05-16T14:49:11.291Z,16.56
2019-05-16T14:52:15.251Z,16.75
2019-05-16T14:55:19.339Z,16.74
2019-05-16T14:58:23.280Z,16.81
2019-05-16T15:01:30.163Z,16.72
2019-05-16T15:04:34.318Z,16.81
2019-05-16T15:07:38.318Z,16.82
2019-05-16T15:10:43.006Z,16.74
2019-05-16T15:13:47.244Z,16.48
2019-05-16T15:16:52.025Z,16.27
2019-05-16T15:19:57.151Z,16.20
2019-05-16T15:23:01.101Z,16.22
2019-05-16T15:26:09.000Z,16.27
2019-05-16T15:29:10.774Z,16.09
2019-05-16T15:32:17.634Z,15.93
2019-05-16T15:35:21.624Z,16.18
2019-05-16T15:38:27.201Z,16.34
2019-05-16T15:41:31.342Z,16.40
2019-05-16T15:44:36.853Z,16.31
2019-05-16T15:47:41.764Z,16.28
2019-05-16T15:50:45.996Z,16.30
2019-05-16T15:53:50.447Z,16.14
2019-05-16T15:56:54.444Z,16.14
2019-05-16T15:59:58.963Z,16.03
2019-05-16T16:03:02.986Z,15.86
2019-05-16T16:06:07.515Z,15.76
2019-05-16T16:09:11.859Z,15.61
2019-05-16T16:12:17.014Z,15.49
2019-05-16T16:15:21.406Z,15.37
2019-05-16T16:18:27.065Z,15.30
2019-05-16T16:21:31.365Z,15.26
2019-05-16T16:24:35.388Z,15.25
2019-05-16T16:27:39.681Z,15.12
2019-05-16T16:30:47.441Z,15.03
2019-05-16T16:33:50.426Z,15.04
2019-05-16T16:36:56.802Z,14.94
2019-05-16T16:40:00.593Z,14.84
2019-05-16T16:43:07.756Z,14.74
2019-05-16T16:46:13.659Z,14.46
2019-05-16T16:49:17.470Z,14.18
2019-05-16T16:52:21.703Z,13.92
2019-05-16T16:55:27.519Z,13.64
2019-05-16T16:58:31.969Z,13.10
2019-05-16T17:01:37.348Z,12.79
2019-05-16T17:04:41.803Z,12.50
2019-05-16T17:07:48.727Z,12.37
2019-05-16T17:10:52.668Z,12.30
2019-05-16T17:13:56.939Z,12.23
2019-05-16T17:17:01.273Z,12.21
2019-05-16T17:20:07.667Z,12.08
2019-05-16T17:23:12.482Z,11.90
2019-05-16T17:26:16.410Z,11.88
2019-05-16T17:29:20.614Z,11.92
2019-05-16T17:32:27.267Z,11.88
2019-05-16T17:35:31.126Z,11.79
2019-05-16T17:38:37.156Z,11.68
2019-05-16T17:41:41.084Z,11.60
2019-05-16T17:44:47.277Z,11.52
2019-05-16T17:47:51.353Z,11.48
2019-05-16T17:50:57.026Z,11.44
2019-05-16T17:54:01.644Z,11.41
2019-05-16T17:57:07.446Z,11.35
2019-05-16T18:00:16.948Z,11.21
2019-05-16T18:03:18.391Z,11.22
2019-05-16T18:06:22.316Z,11.17
2019-05-16T18:09:27.888Z,11.10
2019-05-16T18:12:32.270Z,11.19
2019-05-16T18:15:36.946Z,11.10
2019-05-16T18:18:41.158Z,11.05
2019-05-16T18:21:46.433Z,11.07
2019-05-16T18:24:51.049Z,11.06
2019-05-16T18:27:55.275Z,11.06
2019-05-16T18:30:59.367Z,10.94
2019-05-16T18:34:03.648Z,10.89
2019-05-16T18:37:07.896Z,10.82
2019-05-16T18:40:13.435Z,10.79
2019-05-16T18:43:21.469Z,10.79
2019-05-16T18:46:26.935Z,10.73
2019-05-16T18:49:31.327Z,10.75
2019-05-16T18:52:37.571Z,10.72
2019-05-16T18:55:42.943Z,10.76
2019-05-16T18:58:48.126Z,10.77
2019-05-16T19:01:53.064Z,10.69
2019-05-16T19:04:57.874Z,10.74
2019-05-16T19:08:02.208Z,10.60
2019-05-16T19:11:07.428Z,10.52
2019-05-16T19:14:12.215Z,10.52
2019-05-16T19:17:22.028Z,10.51
2019-05-16T19:20:22.741Z,10.46
2019-05-16T19:23:27.065Z,10.40
2019-05-16T19:26:31.244Z,10.28
2019-05-16T19:29:36.846Z,10.27
2019-05-16T19:32:41.187Z,10.18
2019-05-16T19:35:46.874Z,10.11
2019-05-16T19:38:51.580Z,10.04
2019-05-16T19:41:57.236Z,10.10
2019-05-16T19:45:01.804Z,10.03
2019-05-16T19:48:07.500Z,10.04
2019-05-16T19:51:11.786Z,10.00
2019-05-16T19:54:16.471Z,10.03
2019-05-16T19:57:20.279Z,10.07
2019-05-16T20:00:26.437Z,10.11
2019-05-16T20:03:30.333Z,10.11
2019-05-16T20:06:36.938Z,10.25
2019-05-16T20:09:41.335Z,10.20
2019-05-16T20:12:46.271Z,10.19
2019-05-16T20:15:50.937Z,10.18
2019-05-16T20:18:56.189Z,10.22
2019-05-16T20:22:00.176Z,10.27
2019-05-16T20:25:04.340Z,10.29
2019-05-16T20:28:09.132Z,10.38
2019-05-16T20:31:13.436Z,10.28
2019-05-16T20:34:17.864Z,10.27
2019-05-16T20:37:23.047Z,10.39
2019-05-16T20:40:26.963Z,10.43
2019-05-16T20:43:30.940Z,10.46
2019-05-16T20:46:35.212Z,10.53
2019-05-16T20:49:39.141Z,10.50
2019-05-16T20:52:43.395Z,10.54
2019-05-16T20:55:49.666Z,10.48
2019-05-16T20:58:54.321Z,10.41
2019-05-16T21:01:58.572Z,10.32
2019-05-16T21:05:02.829Z,10.39
2019-05-16T21:08:06.908Z,10.40
2019-05-16T21:11:10.931Z,10.32
2019-05-16T21:14:16.422Z,10.29
2019-05-16T21:17:20.444Z,10.24
2019-05-16T21:20:27.021Z,10.24
2019-05-16T21:23:30.554Z,10.20
2019-05-16T21:26:36.736Z,10.16
2019-05-16T21:29:40.887Z,10.08
2019-05-16T21:32:47.106Z,10.07
2019-05-16T21:35:50.866Z,10.07
2019-05-16T21:38:55.267Z,10.09
2019-05-16T21:41:59.540Z,10.07
2019-05-16T21:45:03.679Z,10.06
2019-05-16T21:48:07.643Z,10.05
2019-05-16T21:51:12.176Z,10.06
2019-05-16T21:54:17.025Z,10.17
2019-05-16T21:57:21.521Z,10.33
2019-05-16T22:00:31.510Z,10.43
2019-05-16T22:03:36.739Z,10.37
2019-05-16T22:06:41.308Z,10.31
2019-05-16T22:09:46.569Z,10.32
2019-05-16T22:12:51.496Z,10.26
2019-05-16T22:15:56.882Z,10.17
2019-05-16T22:19:01.092Z,10.10
2019-05-16T22:22:07.412Z,10.13
2019-05-16T22:25:12.607Z,10.10
2019-05-16T22:28:17.406Z,10.06
2019-05-16T22:31:21.436Z,10.10
2019-05-16T22:34:26.482Z,10.09
2019-05-16T22:37:30.458Z,10.08
2019-05-16T22:40:37.169Z,10.02
2019-05-16T22:43:40.319Z,10.00
2019-05-16T22:46:46.492Z,9.98
2019-05-16T22:49:51.200Z,10.00
2019-05-16T22:52:56.977Z,9.99
2019-05-16T22:56:01.837Z,10.02
2019-05-16T22:59:07.188Z,9.98
2019-05-16T23:02:12.561Z,9.88
2019-05-16T23:05:16.918Z,9.93
2019-05-16T23:08:21.660Z,9.99
2019-05-16T23:11:27.017Z,9.99
2019-05-16T23:14:31.511Z,10.03
2019-05-16T23:17:37.492Z,9.96
2019-05-16T23:20:42.012Z,9.97
2019-05-16T23:23:46.514Z,9.97
2019-05-16T23:26:50.591Z,9.99
2019-05-16T23:29:56.761Z,10.01
2019-05-16T23:33:00.541Z,9.98
2019-05-16T23:36:07.202Z,9.91
2019-05-16T23:39:10.572Z,9.93
2019-05-16T23:42:14.822Z,9.95
2019-05-16T23:45:18.802Z,9.92
2019-05-16T23:48:23.279Z,9.88
2019-05-16T23:51:27.716Z,9.86
2019-05-16T23:54:32.308Z,9.82
2019-05-16T23:57:37.344Z,9.76
